createdAt,value
2017-12-12T00:00:06.182Z,1.76
2017-12-12T00:01:06.193Z,1.76
2017-12-12T00:02:06.206Z,1.84
2017-12-12T00:03:06.215Z,1.79
2017-12-12T00:04:06.226Z,1.83
2017-12-12T00:05:06.235Z,1.77
2017-12-12T00:06:06.251Z,1.77
2017-12-12T00:07:06.260Z,1.79
2017-12-12T00:08:06.271Z,1.81
2017-12-12T00:09:06.282Z,1.76
2017-12-12T00:10:06.291Z,1.77
2017-12-12T00:11:06.302Z,1.70
2017-12-12T00:12:06.312Z,1.73
2017-12-12T00:13:06.329Z,1.77
2017-12-12T00:14:06.332Z,1.79
2017-12-12T00:15:06.348Z,1.81
2017-12-12T00:16:06.354Z,1.81
2017-12-12T00:17:06.370Z,1.77
2017-12-12T00:18:06.382Z,1.76
2017-12-12T00:19:06.386Z,1.90
2017-12-12T00:20:06.417Z,1.93
2017-12-12T00:21:06.410Z,1.99
2017-12-12T00:22:06.424Z,1.93
2017-12-12T00:23:06.428Z,1.91
2017-12-12T00:24:06.440Z,1.84
2017-12-12T00:25:06.455Z,1.88
2017-12-12T00:26:06.462Z,1.79
2017-12-12T00:27:06.473Z,1.79
2017-12-12T00:28:06.497Z,1.81
2017-12-12T00:29:06.498Z,1.81
2017-12-12T00:30:06.505Z,1.77
2017-12-12T00:31:06.518Z,1.79
2017-12-12T00:32:06.526Z,1.72
2017-12-12T00:33:06.541Z,1.84
2017-12-12T00:34:06.547Z,1.77
2017-12-12T00:35:06.559Z,1.81
2017-12-12T00:36:06.668Z,1.68
2017-12-12T00:37:06.580Z,1.73
2017-12-12T00:38:06.590Z,1.73
2017-12-12T00:39:06.600Z,1.77
2017-12-12T00:40:06.615Z,1.79
2017-12-12T00:41:06.622Z,1.83
2017-12-12T00:42:06.632Z,1.79
2017-12-12T00:43:06.643Z,1.76
2017-12-12T00:44:06.653Z,1.73
2017-12-12T00:45:06.665Z,1.77
2017-12-12T00:46:06.678Z,1.79
2017-12-12T00:47:06.684Z,1.68
2017-12-12T00:48:06.699Z,1.76
2017-12-12T00:49:06.706Z,1.60
2017-12-12T00:50:06.720Z,1.66
2017-12-12T00:51:06.727Z,1.63
2017-12-12T00:52:06.739Z,1.72
2017-12-12T00:53:06.750Z,1.72
2017-12-12T00:54:06.759Z,1.62
2017-12-12T00:55:06.770Z,1.65
2017-12-12T00:56:06.779Z,1.68
2017-12-12T00:57:06.792Z,1.70
2017-12-12T00:58:06.801Z,1.72
2017-12-12T00:59:06.816Z,1.73
2017-12-12T01:00:06.829Z,1.81
2017-12-12T01:01:06.833Z,1.73
2017-12-12T01:02:06.849Z,1.73
2017-12-12T01:03:06.857Z,1.81
2017-12-12T01:04:06.865Z,1.73
2017-12-12T01:05:06.876Z,1.66
2017-12-12T01:06:06.885Z,1.66
2017-12-12T01:07:06.897Z,1.63
2017-12-12T01:08:06.908Z,1.59
2017-12-12T01:09:06.923Z,1.63
2017-12-12T01:10:06.928Z,1.60
2017-12-12T01:11:06.939Z,1.63
2017-12-12T01:12:06.949Z,1.62
2017-12-12T01:13:06.959Z,1.58
2017-12-12T01:14:06.970Z,1.70
2017-12-12T01:15:06.982Z,1.63
2017-12-12T01:16:06.994Z,1.72
2017-12-12T01:17:07.007Z,1.70
2017-12-12T01:18:07.014Z,1.73
2017-12-12T01:19:07.024Z,1.66
2017-12-12T01:20:07.031Z,1.73
2017-12-12T01:21:07.042Z,1.79
2017-12-12T01:22:07.056Z,1.79
2017-12-12T01:23:07.065Z,1.76
2017-12-12T01:24:07.074Z,1.83
2017-12-12T01:25:07.091Z,1.72
2017-12-12T01:26:07.093Z,1.62
2017-12-12T01:27:07.105Z,1.69
2017-12-12T01:28:07.115Z,1.65
2017-12-12T01:29:07.127Z,1.59
2017-12-12T01:30:07.141Z,1.76
2017-12-12T01:31:07.152Z,1.73
2017-12-12T01:32:07.175Z,1.68
2017-12-12T01:33:07.172Z,1.72
2017-12-12T01:34:07.175Z,1.66
2017-12-12T01:35:07.203Z,1.73
2017-12-12T01:36:07.196Z,1.69
2017-12-12T01:37:07.208Z,1.73
2017-12-12T01:38:07.220Z,1.70
2017-12-12T01:39:07.228Z,1.63
2017-12-12T01:40:07.238Z,1.62
2017-12-12T01:41:07.249Z,1.63
2017-12-12T01:42:07.259Z,1.62
2017-12-12T01:43:07.274Z,1.68
2017-12-12T01:44:07.280Z,1.62
2017-12-12T01:45:07.291Z,1.65
2017-12-12T01:46:07.300Z,1.59
2017-12-12T01:47:07.312Z,1.69
2017-12-12T01:48:07.321Z,1.60
2017-12-12T01:49:07.331Z,1.63
2017-12-12T01:50:07.342Z,1.59
2017-12-12T01:51:07.352Z,1.58
2017-12-12T01:52:07.377Z,1.59
2017-12-12T01:53:07.372Z,1.66
2017-12-12T01:54:07.382Z,1.63
2017-12-12T01:55:07.393Z,1.59
2017-12-12T01:56:07.407Z,1.60
2017-12-12T01:57:07.418Z,1.58
2017-12-12T01:58:07.427Z,1.45
2017-12-12T01:59:07.434Z,1.50
2017-12-12T02:00:07.445Z,1.50
2017-12-12T02:01:07.454Z,1.59
2017-12-12T02:02:07.463Z,1.41
2017-12-12T02:03:07.479Z,1.51
2017-12-12T02:04:07.483Z,1.42
2017-12-12T02:05:07.503Z,1.47
2017-12-12T02:06:07.506Z,1.51
2017-12-12T02:07:07.515Z,1.47
2017-12-12T02:08:07.523Z,1.52
2017-12-12T02:09:07.533Z,1.51
2017-12-12T02:10:07.557Z,1.50
2017-12-12T02:11:07.554Z,1.41
2017-12-12T02:12:07.573Z,1.54
2017-12-12T02:13:07.575Z,1.45
2017-12-12T02:14:07.584Z,1.51
2017-12-12T02:15:07.597Z,1.44
2017-12-12T02:16:07.610Z,1.48
2017-12-12T02:17:07.614Z,1.50
2017-12-12T02:18:07.626Z,1.42
2017-12-12T02:19:07.635Z,1.48
2017-12-12T02:20:07.644Z,1.55
2017-12-12T02:21:07.654Z,1.52
2017-12-12T02:22:07.665Z,1.51
2017-12-12T02:23:07.676Z,1.51
2017-12-12T02:24:07.687Z,1.45
2017-12-12T02:25:07.695Z,1.45
2017-12-12T02:26:07.710Z,1.52
2017-12-12T02:27:07.721Z,1.52
2017-12-12T02:28:07.727Z,1.54
2017-12-12T02:29:07.737Z,1.45
2017-12-12T02:30:07.749Z,1.51
2017-12-12T02:31:07.757Z,1.52
2017-12-12T02:32:07.767Z,1.47
2017-12-12T02:33:07.781Z,1.48
2017-12-12T02:34:07.787Z,1.52
2017-12-12T02:35:07.796Z,1.58
2017-12-12T02:36:07.807Z,1.62
2017-12-12T02:37:07.820Z,1.59
2017-12-12T02:38:07.828Z,1.59
2017-12-12T02:39:07.839Z,1.63
2017-12-12T02:40:07.852Z,1.66
2017-12-12T02:41:07.858Z,1.62
2017-12-12T02:42:07.869Z,1.66
2017-12-12T02:43:07.880Z,1.66
2017-12-12T02:44:07.888Z,1.55
2017-12-12T02:45:07.899Z,1.59
2017-12-12T02:46:07.906Z,1.59
2017-12-12T02:47:07.917Z,1.60
2017-12-12T02:48:07.930Z,1.65
2017-12-12T02:49:07.944Z,1.66
2017-12-12T02:50:07.950Z,1.62
2017-12-12T02:51:07.958Z,1.65
2017-12-12T02:52:07.973Z,1.62
2017-12-12T02:53:07.980Z,1.62
2017-12-12T02:54:07.986Z,1.65
2017-12-12T02:55:07.995Z,1.69
2017-12-12T02:56:08.011Z,1.62
2017-12-12T02:57:08.022Z,1.62
2017-12-12T02:58:08.029Z,1.62
2017-12-12T02:59:08.038Z,1.63
2017-12-12T03:00:08.051Z,1.66
2017-12-12T03:01:08.058Z,1.60
2017-12-12T03:02:08.068Z,1.62
2017-12-12T03:03:08.077Z,1.62
2017-12-12T03:04:08.090Z,1.58
2017-12-12T03:05:08.119Z,1.54
2017-12-12T03:06:08.108Z,1.58
2017-12-12T03:07:08.121Z,1.66
2017-12-12T03:08:08.129Z,1.62
2017-12-12T03:09:08.139Z,1.79
2017-12-12T03:10:08.147Z,1.73
2017-12-12T03:11:08.157Z,1.70
2017-12-12T03:12:08.169Z,1.77
2017-12-12T03:13:08.177Z,1.70
2017-12-12T03:14:08.188Z,1.72
2017-12-12T03:15:08.198Z,1.70
2017-12-12T03:16:08.206Z,1.70
2017-12-12T03:17:08.218Z,1.70
2017-12-12T03:18:08.233Z,1.62
2017-12-12T03:19:08.252Z,1.62
2017-12-12T03:20:08.249Z,1.65
2017-12-12T03:21:08.254Z,1.66
2017-12-12T03:22:08.274Z,1.60
2017-12-12T03:23:08.277Z,1.70
2017-12-12T03:24:08.284Z,1.70
2017-12-12T03:25:08.297Z,1.62
2017-12-12T03:26:08.305Z,1.65
2017-12-12T03:27:08.318Z,1.68
2017-12-12T03:28:08.323Z,1.70
2017-12-12T03:29:08.347Z,1.76
2017-12-12T03:30:08.346Z,1.68
2017-12-12T03:31:08.366Z,1.79
2017-12-12T03:32:08.362Z,1.73
2017-12-12T03:33:08.371Z,1.72
2017-12-12T03:34:08.381Z,1.70
2017-12-12T03:35:08.390Z,1.80
2017-12-12T03:36:08.401Z,1.79
2017-12-12T03:37:08.415Z,1.81
2017-12-12T03:38:08.432Z,1.76
2017-12-12T03:39:08.428Z,1.80
2017-12-12T03:40:08.439Z,1.77
2017-12-12T03:41:08.449Z,1.86
2017-12-12T03:42:08.463Z,1.79
2017-12-12T03:43:08.467Z,1.81
2017-12-12T03:44:08.480Z,1.84
2017-12-12T03:45:08.495Z,1.80
2017-12-12T03:46:08.494Z,1.83
2017-12-12T03:47:08.503Z,1.87
2017-12-12T03:48:08.516Z,1.80
2017-12-12T03:49:08.523Z,1.77
2017-12-12T03:50:08.531Z,1.81
2017-12-12T03:51:08.541Z,1.83
2017-12-12T03:52:08.556Z,1.81
2017-12-12T03:53:08.560Z,1.81
2017-12-12T03:54:08.574Z,1.86
2017-12-12T03:55:08.579Z,1.84
2017-12-12T03:56:08.594Z,1.90
2017-12-12T03:57:08.602Z,1.90
2017-12-12T03:58:08.607Z,1.90
2017-12-12T03:59:08.618Z,1.91
2017-12-12T04:00:08.626Z,2.00
2017-12-12T04:01:08.636Z,1.91
2017-12-12T04:02:08.648Z,1.93
2017-12-12T04:03:08.666Z,1.98
2017-12-12T04:04:08.671Z,1.98
2017-12-12T04:05:08.675Z,2.00
2017-12-12T04:06:08.681Z,1.98
2017-12-12T04:07:08.692Z,2.05
2017-12-12T04:08:08.702Z,1.88
2017-12-12T04:09:08.715Z,2.05
2017-12-12T04:10:08.758Z,1.99
2017-12-12T04:11:08.733Z,2.03
2017-12-12T04:12:08.743Z,2.03
2017-12-12T04:13:08.752Z,1.98
2017-12-12T04:14:08.759Z,1.99
2017-12-12T04:15:08.766Z,1.99
2017-12-12T04:16:08.780Z,2.00
2017-12-12T04:17:08.792Z,2.00
2017-12-12T04:18:08.801Z,2.07
2017-12-12T04:19:08.804Z,2.07
2017-12-12T04:20:08.818Z,2.07
2017-12-12T04:21:08.831Z,2.12
2017-12-12T04:22:08.836Z,2.09
2017-12-12T04:23:08.845Z,2.09
2017-12-12T04:24:08.856Z,2.05
2017-12-12T04:25:08.863Z,1.95
2017-12-12T04:26:08.874Z,2.02
2017-12-12T04:27:08.883Z,2.00
2017-12-12T04:28:08.898Z,2.03
2017-12-12T04:29:08.908Z,2.03
2017-12-12T04:30:08.927Z,1.99
2017-12-12T04:31:08.922Z,2.00
2017-12-12T04:32:08.930Z,1.99
2017-12-12T04:33:08.943Z,1.95
2017-12-12T04:34:08.951Z,2.03
2017-12-12T04:35:08.956Z,2.03
2017-12-12T04:36:08.977Z,2.00
2017-12-12T04:37:08.983Z,2.06
2017-12-12T04:38:08.990Z,2.05
2017-12-12T04:39:08.998Z,1.99
2017-12-12T04:40:09.006Z,2.06
2017-12-12T04:41:09.019Z,2.10
2017-12-12T04:42:09.036Z,2.05
2017-12-12T04:43:09.036Z,2.06
2017-12-12T04:44:09.049Z,2.06
2017-12-12T04:45:09.057Z,2.06
2017-12-12T04:46:09.067Z,2.00
2017-12-12T04:47:09.075Z,2.06
2017-12-12T04:48:09.084Z,2.12
2017-12-12T04:49:09.093Z,2.10
2017-12-12T04:50:09.101Z,2.10
2017-12-12T04:51:09.114Z,2.12
2017-12-12T04:52:09.146Z,2.16
2017-12-12T04:53:09.136Z,2.23
2017-12-12T04:54:09.137Z,2.21
2017-12-12T04:55:09.154Z,2.16
2017-12-12T04:56:09.168Z,2.12
2017-12-12T04:57:09.194Z,2.10
2017-12-12T04:58:09.181Z,2.16
2017-12-12T04:59:09.195Z,2.10
2017-12-12T05:00:09.199Z,2.16
2017-12-12T05:01:09.219Z,2.12
2017-12-12T05:02:09.219Z,2.20
2017-12-12T05:03:09.226Z,2.16
2017-12-12T05:04:09.237Z,2.16
2017-12-12T05:05:09.250Z,2.12
2017-12-12T05:06:09.256Z,2.03
2017-12-12T05:07:09.266Z,2.00
2017-12-12T05:08:09.273Z,2.05
2017-12-12T05:09:09.285Z,1.95
2017-12-12T05:10:09.290Z,2.05
2017-12-12T05:11:09.300Z,2.02
2017-12-12T05:12:09.311Z,1.99
2017-12-12T05:13:09.325Z,1.99
2017-12-12T05:14:09.328Z,2.02
2017-12-12T05:15:09.338Z,1.99
2017-12-12T05:16:09.356Z,2.06
2017-12-12T05:17:09.360Z,1.99
2017-12-12T05:18:09.373Z,1.99
2017-12-12T05:19:09.378Z,1.99
2017-12-12T05:20:09.386Z,1.98
2017-12-12T05:21:09.400Z,1.90
2017-12-12T05:22:09.406Z,1.95
2017-12-12T05:23:09.420Z,1.86
2017-12-12T05:24:09.425Z,2.05
2017-12-12T05:25:09.439Z,1.93
2017-12-12T05:26:09.450Z,2.03
2017-12-12T05:27:09.462Z,2.00
2017-12-12T05:28:09.471Z,1.93
2017-12-12T05:29:09.477Z,1.99
2017-12-12T05:30:09.482Z,1.99
2017-12-12T05:31:09.497Z,1.95
2017-12-12T05:32:09.504Z,1.93
2017-12-12T05:33:09.515Z,2.05
2017-12-12T05:34:09.519Z,2.02
2017-12-12T05:35:09.532Z,1.93
2017-12-12T05:36:09.546Z,2.00
2017-12-12T05:37:09.557Z,1.98
2017-12-12T05:38:09.556Z,1.99
2017-12-12T05:39:09.566Z,2.02
2017-12-12T05:40:09.585Z,2.05
2017-12-12T05:41:09.601Z,1.99
2017-12-12T05:42:09.594Z,1.98
2017-12-12T05:43:09.610Z,2.02
2017-12-12T05:44:09.614Z,2.00
2017-12-12T05:45:09.624Z,1.98
2017-12-12T05:46:09.629Z,2.07
2017-12-12T05:47:09.692Z,2.02
2017-12-12T05:48:09.652Z,1.99
2017-12-12T05:49:09.656Z,1.99
2017-12-12T05:50:09.664Z,2.00
2017-12-12T05:51:09.673Z,1.91
2017-12-12T05:52:09.682Z,2.02
2017-12-12T05:53:09.697Z,1.98
2017-12-12T05:54:09.702Z,2.02
2017-12-12T05:55:09.711Z,2.00
2017-12-12T05:56:09.720Z,2.03
2017-12-12T05:57:09.730Z,1.91
2017-12-12T05:58:09.768Z,1.93
2017-12-12T05:59:09.753Z,2.03
2017-12-12T06:00:09.757Z,1.98
2017-12-12T06:01:09.787Z,1.99
2017-12-12T06:02:09.784Z,1.95
2017-12-12T06:03:09.794Z,1.99
2017-12-12T06:04:09.795Z,1.95
2017-12-12T06:05:09.808Z,2.05
2017-12-12T06:06:09.814Z,1.98
2017-12-12T06:07:09.824Z,1.95
2017-12-12T06:08:09.839Z,2.03
2017-12-12T06:09:09.860Z,2.00
2017-12-12T06:10:09.859Z,1.99
2017-12-12T06:11:09.875Z,2.03
2017-12-12T06:12:09.885Z,2.00
2017-12-12T06:13:09.882Z,2.02
2017-12-12T06:14:09.890Z,2.03
2017-12-12T06:15:09.906Z,2.00
2017-12-12T06:16:09.920Z,2.00
2017-12-12T06:17:09.920Z,2.03
2017-12-12T06:18:09.934Z,1.98
2017-12-12T06:19:09.939Z,1.98
2017-12-12T06:20:09.950Z,1.99
2017-12-12T06:21:09.959Z,1.99
2017-12-12T06:22:09.969Z,1.95
2017-12-12T06:23:09.986Z,2.05
2017-12-12T06:24:09.994Z,2.06
2017-12-12T06:25:10.000Z,1.99
2017-12-12T06:26:10.017Z,2.00
2017-12-12T06:27:10.022Z,2.05
2017-12-12T06:28:10.028Z,1.99
2017-12-12T06:29:10.048Z,2.03
2017-12-12T06:30:10.086Z,2.09
2017-12-12T06:31:10.055Z,2.07
2017-12-12T06:32:10.076Z,2.07
2017-12-12T06:33:10.080Z,2.06
2017-12-12T06:34:10.087Z,2.03
2017-12-12T06:35:10.095Z,2.09
2017-12-12T06:36:10.104Z,2.03
2017-12-12T06:37:10.123Z,2.06
2017-12-12T06:38:10.122Z,1.99
2017-12-12T06:39:10.133Z,2.12
2017-12-12T06:40:10.142Z,2.10
2017-12-12T06:41:10.457Z,2.12
2017-12-12T06:42:10.160Z,2.10
2017-12-12T06:43:10.171Z,2.10
2017-12-12T06:44:10.182Z,2.16
2017-12-12T06:45:10.200Z,2.09
2017-12-12T06:46:10.198Z,2.09
2017-12-12T06:47:10.212Z,2.09
2017-12-12T06:48:10.223Z,2.09
2017-12-12T06:49:10.234Z,2.12
2017-12-12T06:50:10.250Z,2.10
2017-12-12T06:51:10.249Z,2.14
2017-12-12T06:52:10.264Z,2.17
2017-12-12T06:53:10.273Z,2.12
2017-12-12T06:54:10.281Z,2.07
2017-12-12T06:55:10.293Z,2.09
2017-12-12T06:56:10.303Z,2.14
2017-12-12T06:57:10.308Z,2.17
2017-12-12T06:58:10.322Z,2.23
2017-12-12T06:59:10.330Z,2.23
2017-12-12T07:00:10.346Z,2.31
2017-12-12T07:01:10.347Z,2.43
2017-12-12T07:02:10.355Z,2.42
2017-12-12T07:03:10.369Z,2.42
2017-12-12T07:04:10.378Z,2.46
2017-12-12T07:05:10.384Z,2.49
2017-12-12T07:06:10.397Z,2.42
2017-12-12T07:07:10.678Z,2.43
2017-12-12T07:09:10.428Z,2.34
2017-12-12T07:10:10.434Z,2.24
2017-12-12T07:11:10.468Z,2.24
2017-12-12T07:12:10.455Z,2.24
2017-12-12T07:13:10.467Z,2.27
2017-12-12T07:14:10.471Z,2.27
2017-12-12T07:15:10.486Z,2.23
2017-12-12T07:16:10.492Z,2.28
2017-12-12T07:17:10.502Z,2.25
2017-12-12T07:18:10.512Z,2.25
2017-12-12T07:19:10.525Z,2.30
2017-12-12T07:20:10.533Z,2.34
2017-12-12T07:21:10.541Z,2.28
2017-12-12T07:22:10.550Z,2.42
2017-12-12T07:23:10.560Z,2.25
2017-12-12T07:24:10.578Z,2.31
2017-12-12T07:25:10.581Z,2.34
2017-12-12T07:26:10.592Z,2.24
2017-12-12T07:27:10.608Z,2.27
2017-12-12T07:28:10.611Z,2.28
2017-12-12T07:29:10.621Z,2.18
2017-12-12T07:30:10.638Z,2.20
2017-12-12T07:31:10.640Z,2.17
2017-12-12T07:32:10.649Z,2.10
2017-12-12T07:33:10.664Z,2.17
2017-12-12T07:34:10.673Z,2.21
2017-12-12T07:35:11.568Z,2.21
2017-12-12T07:36:10.693Z,2.18
2017-12-12T07:37:10.702Z,2.06
2017-12-12T07:38:10.706Z,2.20
2017-12-12T07:39:10.738Z,2.23
2017-12-12T07:40:10.728Z,2.10
2017-12-12T07:41:10.737Z,2.14
2017-12-12T07:42:10.746Z,2.21
2017-12-12T07:43:10.756Z,2.24
2017-12-12T07:44:10.767Z,2.21
2017-12-12T07:45:10.776Z,2.17
2017-12-12T07:46:10.784Z,2.23
2017-12-12T07:47:10.813Z,2.28
2017-12-12T07:48:10.814Z,2.24
2017-12-12T07:49:10.817Z,2.24
2017-12-12T07:50:10.825Z,2.27
2017-12-12T07:51:10.834Z,2.28
2017-12-12T07:52:10.844Z,2.24
2017-12-12T07:53:10.858Z,2.31
2017-12-12T07:54:10.864Z,2.34
2017-12-12T07:55:10.874Z,2.24
2017-12-12T07:56:10.885Z,2.28
2017-12-12T07:57:10.917Z,2.43
2017-12-12T07:58:10.906Z,2.38
2017-12-12T07:59:10.915Z,2.38
2017-12-12T08:00:10.922Z,2.42
2017-12-12T08:01:10.930Z,2.42
2017-12-12T08:02:10.941Z,2.39
2017-12-12T08:03:10.949Z,2.46
2017-12-12T08:04:10.959Z,2.45
2017-12-12T08:05:10.984Z,2.48
2017-12-12T08:06:10.980Z,2.45
2017-12-12T08:07:10.991Z,2.48
2017-12-12T08:08:11.003Z,2.46
2017-12-12T08:09:11.016Z,2.43
2017-12-12T08:10:11.018Z,2.43
2017-12-12T08:11:11.030Z,2.49
2017-12-12T08:12:11.242Z,2.43
2017-12-12T08:13:11.052Z,2.48
2017-12-12T08:14:11.058Z,2.42
2017-12-12T08:15:11.074Z,2.48
2017-12-12T08:16:11.082Z,2.45
2017-12-12T08:17:11.088Z,2.45
2017-12-12T08:18:11.096Z,2.46
2017-12-12T08:19:11.110Z,2.45
2017-12-12T08:20:11.139Z,2.53
2017-12-12T08:21:12.290Z,2.61
2017-12-12T08:22:11.134Z,2.56
2017-12-12T08:23:11.142Z,2.57
2017-12-12T08:24:11.170Z,2.57
2017-12-12T08:25:11.164Z,2.43
2017-12-12T08:26:11.232Z,2.43
2017-12-12T08:27:11.183Z,2.57
2017-12-12T08:28:11.220Z,2.46
2017-12-12T08:29:11.203Z,2.46
2017-12-12T08:30:11.235Z,2.42
2017-12-12T08:31:11.222Z,2.45
2017-12-12T08:32:11.232Z,2.54
2017-12-12T08:33:11.244Z,2.57
2017-12-12T08:34:11.252Z,2.49
2017-12-12T08:35:11.267Z,2.42
2017-12-12T08:36:11.272Z,2.43
2017-12-12T08:37:11.291Z,2.46
2017-12-12T08:38:11.298Z,2.48
2017-12-12T08:39:11.314Z,2.54
2017-12-12T08:40:11.316Z,2.48
2017-12-12T08:41:11.323Z,2.57
2017-12-12T08:42:11.336Z,2.53
2017-12-12T08:44:11.961Z,2.56
2017-12-12T08:45:11.360Z,2.56
2017-12-12T08:46:11.374Z,2.53
2017-12-12T08:47:11.379Z,2.54
2017-12-12T08:48:11.389Z,2.57
2017-12-12T08:49:11.400Z,2.66
2017-12-12T08:50:11.782Z,2.60
2017-12-12T08:51:11.420Z,2.63
2017-12-12T08:52:11.431Z,2.63
2017-12-12T08:53:11.445Z,2.63
2017-12-12T08:54:11.457Z,2.57
2017-12-12T08:55:11.638Z,2.57
2017-12-12T08:56:11.519Z,2.59
2017-12-12T08:57:11.499Z,2.43
2017-12-12T08:58:11.530Z,2.46
2017-12-12T08:59:11.501Z,2.46
2017-12-12T09:00:11.509Z,2.53
2017-12-12T09:01:11.519Z,2.45
2017-12-12T09:02:11.528Z,2.43
2017-12-12T09:03:11.544Z,2.45
2017-12-12T09:04:11.553Z,2.45
2017-12-12T09:05:11.559Z,2.41
2017-12-12T09:06:11.572Z,2.46
2017-12-12T09:07:11.582Z,2.42
2017-12-12T09:08:11.602Z,2.53
2017-12-12T09:09:11.610Z,2.52
2017-12-12T09:10:11.610Z,2.54
2017-12-12T09:11:11.619Z,2.57
2017-12-12T09:12:11.631Z,2.54
2017-12-12T09:13:11.650Z,2.53
2017-12-12T09:14:11.646Z,2.48
2017-12-12T09:16:11.664Z,2.43
2017-12-12T09:17:11.678Z,2.45
2017-12-12T09:18:11.687Z,2.41
2017-12-12T09:19:11.696Z,2.45
2017-12-12T09:20:11.713Z,2.46
2017-12-12T09:21:11.717Z,2.45
2017-12-12T09:22:11.726Z,2.52
2017-12-12T09:23:11.736Z,2.49
2017-12-12T09:24:11.750Z,2.49
2017-12-12T09:25:11.760Z,2.43
2017-12-12T09:26:11.765Z,2.52
2017-12-12T09:27:11.776Z,2.46
2017-12-12T09:28:11.787Z,2.38
2017-12-12T09:29:11.804Z,2.43
2017-12-12T09:30:11.809Z,2.45
2017-12-12T09:31:11.822Z,2.41
2017-12-12T09:32:11.831Z,2.48
2017-12-12T09:33:11.834Z,2.42
2017-12-12T09:34:11.849Z,2.42
2017-12-12T09:35:11.857Z,2.42
2017-12-12T09:36:11.862Z,2.53
2017-12-12T09:37:11.875Z,2.42
2017-12-12T09:38:12.111Z,2.43
2017-12-12T09:39:11.900Z,2.36
2017-12-12T09:40:11.903Z,2.42
2017-12-12T09:41:11.913Z,2.36
2017-12-12T09:42:11.924Z,2.43
2017-12-12T09:43:11.933Z,2.35
2017-12-12T09:44:11.943Z,2.36
2017-12-12T09:45:11.952Z,2.38
2017-12-12T09:46:11.964Z,2.31
2017-12-12T09:48:11.984Z,2.39
2017-12-12T09:50:12.140Z,2.35
2017-12-12T09:51:12.023Z,2.35
2017-12-12T09:52:12.023Z,2.35
2017-12-12T09:53:12.191Z,2.30
2017-12-12T09:54:12.161Z,2.28
2017-12-12T09:55:12.061Z,2.27
2017-12-12T09:56:12.059Z,2.27
2017-12-12T09:57:12.070Z,2.38
2017-12-12T09:58:12.081Z,2.28
2017-12-12T09:59:12.098Z,2.43
2017-12-12T10:00:12.099Z,2.42
2017-12-12T10:01:12.120Z,2.31
2017-12-12T10:02:12.120Z,2.34
2017-12-12T10:03:12.141Z,2.25
2017-12-12T10:04:12.143Z,2.27
2017-12-12T10:05:12.148Z,2.36
2017-12-12T10:06:12.158Z,2.28
2017-12-12T10:07:12.166Z,2.21
2017-12-12T10:08:12.180Z,2.30
2017-12-12T10:09:12.201Z,2.28
2017-12-12T10:10:12.202Z,2.21
2017-12-12T10:11:12.218Z,2.20
2017-12-12T10:12:12.230Z,2.25
2017-12-12T10:13:12.231Z,2.18
2017-12-12T10:14:12.240Z,2.20
2017-12-12T10:15:12.247Z,2.27
2017-12-12T10:16:12.258Z,2.12
2017-12-12T10:17:12.266Z,2.20
2017-12-12T10:18:12.295Z,2.17
2017-12-12T10:19:12.288Z,2.17
2017-12-12T10:20:12.297Z,2.23
2017-12-12T10:21:12.309Z,2.18
2017-12-12T10:22:12.325Z,2.23
2017-12-12T10:23:12.328Z,2.21
2017-12-12T10:24:12.345Z,2.23
2017-12-12T10:25:12.355Z,2.16
2017-12-12T10:26:12.357Z,2.21
2017-12-12T10:27:12.381Z,2.12
2017-12-12T10:28:12.383Z,2.10
2017-12-12T10:29:12.410Z,2.23
2017-12-12T10:30:12.618Z,2.14
2017-12-12T10:31:12.405Z,2.12
2017-12-12T10:32:12.442Z,2.10
2017-12-12T10:33:12.664Z,2.09
2017-12-12T10:34:12.432Z,2.09
2017-12-12T10:35:12.442Z,1.99
2017-12-12T10:36:12.474Z,2.00
2017-12-12T10:37:12.585Z,1.98
2017-12-12T10:38:12.471Z,1.98
2017-12-12T10:39:12.557Z,1.99
2017-12-12T10:40:12.491Z,2.00
2017-12-12T10:41:12.506Z,1.99
2017-12-12T10:42:12.515Z,1.99
2017-12-12T10:43:12.530Z,1.99
2017-12-12T10:44:12.531Z,2.00
2017-12-12T10:45:12.540Z,1.87
2017-12-12T10:46:12.565Z,2.02
2017-12-12T10:47:12.559Z,1.98
2017-12-12T10:48:12.573Z,1.98
2017-12-12T10:49:12.582Z,1.98
2017-12-12T10:50:12.590Z,1.98
2017-12-12T10:51:12.599Z,2.00
2017-12-12T10:52:12.608Z,2.03
2017-12-12T10:53:12.719Z,2.03
2017-12-12T10:54:12.626Z,2.00
2017-12-12T10:55:12.637Z,1.99
2017-12-12T10:56:12.651Z,2.03
2017-12-12T10:57:12.656Z,1.99
2017-12-12T10:58:12.664Z,2.00
2017-12-12T10:59:12.674Z,1.99
2017-12-12T11:01:12.693Z,1.98
2017-12-12T11:02:12.704Z,1.93
2017-12-12T11:03:12.711Z,2.00
2017-12-12T11:04:12.721Z,2.02
2017-12-12T11:05:12.738Z,1.99
2017-12-12T11:06:12.740Z,2.00
2017-12-12T11:07:12.757Z,2.00
2017-12-12T11:08:12.761Z,1.98
2017-12-12T11:09:12.771Z,2.05
2017-12-12T11:10:12.778Z,1.98
2017-12-12T11:11:12.789Z,2.02
2017-12-12T11:12:12.798Z,1.91
2017-12-12T11:13:12.809Z,2.05
2017-12-12T11:14:12.816Z,1.99
2017-12-12T11:15:12.824Z,1.98
2017-12-12T11:16:12.833Z,2.00
2017-12-12T11:17:12.846Z,1.95
2017-12-12T11:18:12.858Z,2.03
2017-12-12T11:19:12.868Z,2.05
2017-12-12T11:20:12.874Z,2.00
2017-12-12T11:21:12.891Z,1.99
2017-12-12T11:22:12.892Z,1.98
2017-12-12T11:23:12.901Z,1.99
2017-12-12T11:24:12.912Z,1.91
2017-12-12T11:25:12.922Z,1.98
2017-12-12T11:26:12.932Z,1.93
2017-12-12T11:27:12.944Z,1.95
2017-12-12T11:28:12.950Z,2.06
2017-12-12T11:29:12.963Z,2.06
2017-12-12T11:30:13.077Z,2.07
2017-12-12T11:31:12.989Z,2.02
2017-12-12T11:32:12.987Z,1.98
2017-12-12T11:33:13.002Z,2.02
2017-12-12T11:34:13.008Z,1.95
2017-12-12T11:35:13.021Z,2.03
2017-12-12T11:36:13.029Z,1.99
2017-12-12T11:37:13.038Z,1.99
2017-12-12T11:38:13.047Z,1.98
2017-12-12T11:39:13.056Z,1.99
2017-12-12T11:40:13.069Z,2.09
2017-12-12T11:41:13.078Z,1.99
2017-12-12T11:42:13.085Z,2.03
2017-12-12T11:43:13.096Z,2.06
2017-12-12T11:44:13.105Z,2.09
2017-12-12T11:45:13.116Z,2.10
2017-12-12T11:46:13.131Z,2.16
2017-12-12T11:47:13.136Z,2.18
2017-12-12T11:48:13.154Z,2.17
2017-12-12T11:49:13.154Z,2.20
2017-12-12T11:50:13.168Z,2.18
2017-12-12T11:51:13.173Z,2.10
2017-12-12T11:52:13.183Z,2.24
2017-12-12T11:53:13.206Z,2.20
2017-12-12T11:54:13.323Z,2.18
2017-12-12T11:55:13.214Z,2.23
2017-12-12T11:56:14.297Z,2.18
2017-12-12T11:57:14.049Z,2.20
2017-12-12T11:58:13.242Z,2.25
2017-12-12T11:59:13.252Z,2.17
2017-12-12T12:00:13.278Z,2.28
2017-12-12T12:01:13.272Z,2.21
2017-12-12T12:02:13.286Z,2.28
2017-12-12T12:03:13.295Z,2.23
2017-12-12T12:04:13.303Z,2.24
2017-12-12T12:05:13.316Z,2.31
2017-12-12T12:06:13.327Z,2.31
2017-12-12T12:07:13.331Z,2.28
2017-12-12T12:08:13.341Z,2.34
2017-12-12T12:09:13.352Z,2.36
2017-12-12T12:10:13.362Z,2.45
2017-12-12T12:11:13.371Z,2.43
2017-12-12T12:12:13.382Z,2.46
2017-12-12T12:13:13.390Z,2.49
2017-12-12T12:14:13.402Z,2.49
2017-12-12T12:15:13.412Z,2.48
2017-12-12T12:16:13.427Z,2.42
2017-12-12T12:17:13.436Z,2.56
2017-12-12T12:18:13.442Z,2.41
2017-12-12T12:19:13.454Z,2.48
2017-12-12T12:20:13.462Z,2.48
2017-12-12T12:21:13.473Z,2.45
2017-12-12T12:22:13.481Z,2.57
2017-12-12T12:23:13.493Z,2.53
2017-12-12T12:24:13.503Z,2.57
2017-12-12T12:25:13.518Z,2.53
2017-12-12T12:26:13.529Z,2.63
2017-12-12T12:27:13.532Z,2.64
2017-12-12T12:28:13.542Z,2.63
2017-12-12T12:29:13.556Z,2.66
2017-12-12T12:30:13.564Z,2.64
2017-12-12T12:31:13.573Z,2.71
2017-12-12T12:32:13.583Z,2.77
2017-12-12T12:33:13.594Z,2.74
2017-12-12T12:34:13.603Z,2.79
2017-12-12T12:35:13.613Z,2.79
2017-12-12T12:36:13.626Z,2.72
2017-12-12T12:37:13.635Z,2.79
2017-12-12T12:38:13.642Z,2.79
2017-12-12T12:39:13.652Z,2.78
2017-12-12T12:40:13.668Z,2.79
2017-12-12T12:41:13.675Z,2.77
2017-12-12T12:42:13.687Z,2.75
2017-12-12T12:43:13.694Z,2.85
2017-12-12T12:44:13.703Z,2.75
2017-12-12T12:45:13.730Z,2.85
2017-12-12T12:46:13.754Z,2.93
2017-12-12T12:47:13.742Z,2.93
2017-12-12T12:48:13.747Z,2.90
2017-12-12T12:49:13.757Z,2.99
2017-12-12T12:50:13.766Z,2.93
2017-12-12T12:51:13.777Z,2.99
2017-12-12T12:52:13.789Z,2.92
2017-12-12T12:53:13.797Z,3.00
2017-12-12T12:54:13.821Z,3.00
2017-12-12T12:55:13.822Z,2.93
2017-12-12T12:56:13.928Z,2.95
2017-12-12T12:57:13.897Z,2.99
2017-12-12T12:58:13.852Z,2.97
2017-12-12T12:59:13.883Z,2.99
2017-12-12T13:00:13.875Z,2.97
2017-12-12T13:01:13.887Z,2.99
2017-12-12T13:02:13.895Z,2.99
2017-12-12T13:03:13.902Z,3.03
2017-12-12T13:04:13.911Z,3.03
2017-12-12T13:05:13.920Z,3.15
2017-12-12T13:06:13.929Z,2.99
2017-12-12T13:07:13.942Z,3.00
2017-12-12T13:08:13.964Z,3.00
2017-12-12T13:09:13.966Z,3.10
2017-12-12T13:10:13.971Z,3.06
2017-12-12T13:11:13.983Z,3.08
2017-12-12T13:12:14.001Z,3.03
2017-12-12T13:13:14.003Z,3.10
2017-12-12T13:14:14.018Z,3.08
2017-12-12T13:15:14.027Z,3.14
2017-12-12T13:16:14.035Z,3.10
2017-12-12T13:17:14.048Z,3.11
2017-12-12T13:18:14.055Z,3.03
2017-12-12T13:19:14.070Z,3.08
2017-12-12T13:20:14.077Z,3.08
2017-12-12T13:21:14.083Z,3.10
2017-12-12T13:22:14.109Z,3.15
2017-12-12T13:23:14.105Z,3.18
2017-12-12T13:24:14.118Z,3.15